sensor_id;sensor_type;location;lat;lon;timestamp;P1;durP1;ratioP1;P2;durP2;ratioP2
26820;SDS011;37186;51.394;5.454;2024-03-02T00:02:52;2.30;;;2.30;;
26820;SDS011;37186;51.394;5.454;2024-03-02T00:05:53;2.03;;;2.03;;
26820;SDS011;37186;51.394;5.454;2024-03-02T00:08:55;2.30;;;2.30;;
26820;SDS011;37186;51.394;5.454;2024-03-02T00:11:59;2.30;;;2.30;;
26820;SDS011;37186;51.394;5.454;2024-03-02T00:15:00;2.30;;;2.30;;
26820;SDS011;37186;51.394;5.454;2024-03-02T00:18:02;2.33;;;2.33;;
26820;SDS011;37186;51.394;5.454;2024-03-02T00:21:05;2.20;;;2.20;;
26820;SDS011;37186;51.394;5.454;2024-03-02T00:24:27;2.20;;;2.20;;
26820;SDS011;37186;51.394;5.454;2024-03-02T00:27:33;2.30;;;2.30;;
26820;SDS011;37186;51.394;5.454;2024-03-02T00:33:52;2.00;;;2.00;;
26820;SDS011;37186;51.394;5.454;2024-03-02T00:36:53;2.20;;;2.20;;
26820;SDS011;37186;51.394;5.454;2024-03-02T00:39:53;2.10;;;2.10;;
26820;SDS011;37186;51.394;5.454;2024-03-02T00:42:54;2.10;;;2.10;;
26820;SDS011;37186;51.394;5.454;2024-03-02T00:45:55;2.10;;;2.10;;
26820;SDS011;37186;51.394;5.454;2024-03-02T00:48:57;2.10;;;2.10;;
26820;SDS011;37186;51.394;5.454;2024-03-02T00:51:58;2.17;;;2.17;;
26820;SDS011;37186;51.394;5.454;2024-03-02T00:54:59;2.10;;;2.10;;
26820;SDS011;37186;51.394;5.454;2024-03-02T00:58:00;2.30;;;2.30;;
26820;SDS011;37186;51.394;5.454;2024-03-02T01:01:00;2.03;;;2.03;;
26820;SDS011;37186;51.394;5.454;2024-03-02T01:04:01;2.20;;;2.20;;
26820;SDS011;37186;51.394;5.454;2024-03-02T01:07:01;2.20;;;2.20;;
26820;SDS011;37186;51.394;5.454;2024-03-02T01:10:02;2.23;;;2.23;;
26820;SDS011;37186;51.394;5.454;2024-03-02T01:13:03;2.30;;;2.30;;
26820;SDS011;37186;51.394;5.454;2024-03-02T01:16:04;2.13;;;2.13;;
26820;SDS011;37186;51.394;5.454;2024-03-02T01:19:04;2.10;;;2.10;;
26820;SDS011;37186;51.394;5.454;2024-03-02T01:22:05;2.10;;;2.10;;
26820;SDS011;37186;51.394;5.454;2024-03-02T01:25:06;2.10;;;2.10;;
26820;SDS011;37186;51.394;5.454;2024-03-02T01:28:08;2.30;;;2.30;;
26820;SDS011;37186;51.394;5.454;2024-03-02T01:31:09;2.20;;;2.20;;
26820;SDS011;37186;51.394;5.454;2024-03-02T01:34:09;2.20;;;2.20;;
26820;SDS011;37186;51.394;5.454;2024-03-02T01:37:10;2.20;;;2.20;;
26820;SDS011;37186;51.394;5.454;2024-03-02T01:40:10;2.20;;;2.20;;
26820;SDS011;37186;51.394;5.454;2024-03-02T01:43:11;2.10;;;2.10;;
26820;SDS011;37186;51.394;5.454;2024-03-02T01:46:12;2.30;;;2.30;;
26820;SDS011;37186;51.394;5.454;2024-03-02T01:49:12;2.10;;;2.10;;
26820;SDS011;37186;51.394;5.454;2024-03-02T01:52:13;2.20;;;2.20;;
26820;SDS011;37186;51.394;5.454;2024-03-02T01:55:14;2.13;;;2.13;;
26820;SDS011;37186;51.394;5.454;2024-03-02T01:58:14;2.20;;;2.20;;
26820;SDS011;37186;51.394;5.454;2024-03-02T02:01:15;2.27;;;2.27;;
26820;SDS011;37186;51.394;5.454;2024-03-02T02:04:16;2.30;;;2.30;;
26820;SDS011;37186;51.394;5.454;2024-03-02T02:07:17;2.20;;;2.20;;
26820;SDS011;37186;51.394;5.454;2024-03-02T02:10:17;2.23;;;2.23;;
26820;SDS011;37186;51.394;5.454;2024-03-02T02:13:18;2.50;;;2.50;;
26820;SDS011;37186;51.394;5.454;2024-03-02T02:16:19;2.00;;;2.00;;
26820;SDS011;37186;51.394;5.454;2024-03-02T02:19:19;2.30;;;2.30;;
26820;SDS011;37186;51.394;5.454;2024-03-02T02:22:20;2.30;;;2.30;;
26820;SDS011;37186;51.394;5.454;2024-03-02T02:25:20;2.30;;;2.30;;
26820;SDS011;37186;51.394;5.454;2024-03-02T02:28:21;2.10;;;2.10;;
26820;SDS011;37186;51.394;5.454;2024-03-02T02:31:21;2.20;;;2.20;;
26820;SDS011;37186;51.394;5.454;2024-03-02T02:34:22;2.20;;;2.20;;
26820;SDS011;37186;51.394;5.454;2024-03-02T02:37:22;2.20;;;2.20;;
26820;SDS011;37186;51.394;5.454;2024-03-02T02:40:23;2.30;;;2.30;;
26820;SDS011;37186;51.394;5.454;2024-03-02T02:43:23;2.30;;;2.30;;
26820;SDS011;37186;51.394;5.454;2024-03-02T02:46:24;2.20;;;2.20;;
26820;SDS011;37186;51.394;5.454;2024-03-02T02:49:24;2.20;;;2.20;;
26820;SDS011;37186;51.394;5.454;2024-03-02T02:52:25;2.20;;;2.20;;
26820;SDS011;37186;51.394;5.454;2024-03-02T02:55:25;2.20;;;2.20;;
26820;SDS011;37186;51.394;5.454;2024-03-02T02:58:26;2.30;;;2.30;;
26820;SDS011;37186;51.394;5.454;2024-03-02T03:01:27;2.07;;;2.07;;
26820;SDS011;37186;51.394;5.454;2024-03-02T03:04:28;2.20;;;2.20;;
26820;SDS011;37186;51.394;5.454;2024-03-02T03:07:28;2.10;;;2.10;;
26820;SDS011;37186;51.394;5.454;2024-03-02T03:10:29;2.30;;;2.30;;
26820;SDS011;37186;51.394;5.454;2024-03-02T03:13:30;2.07;;;2.07;;
26820;SDS011;37186;51.394;5.454;2024-03-02T03:16:32;2.20;;;2.20;;
26820;SDS011;37186;51.394;5.454;2024-03-02T03:19:32;2.30;;;2.30;;
26820;SDS011;37186;51.394;5.454;2024-03-02T03:22:33;2.20;;;2.20;;
26820;SDS011;37186;51.394;5.454;2024-03-02T03:25:35;2.00;;;2.00;;
26820;SDS011;37186;51.394;5.454;2024-03-02T03:28:35;2.20;;;2.20;;
26820;SDS011;37186;51.394;5.454;2024-03-02T03:31:36;2.30;;;2.30;;
26820;SDS011;37186;51.394;5.454;2024-03-02T03:34:36;2.10;;;2.10;;
26820;SDS011;37186;51.394;5.454;2024-03-02T03:37:37;2.20;;;2.20;;
26820;SDS011;37186;51.394;5.454;2024-03-02T03:40:37;2.10;;;2.10;;
26820;SDS011;37186;51.394;5.454;2024-03-02T03:43:38;2.00;;;2.00;;
26820;SDS011;37186;51.394;5.454;2024-03-02T03:46:38;2.40;;;2.40;;
26820;SDS011;37186;51.394;5.454;2024-03-02T03:49:39;2.17;;;2.17;;
26820;SDS011;37186;51.394;5.454;2024-03-02T03:52:39;2.13;;;2.13;;
26820;SDS011;37186;51.394;5.454;2024-03-02T03:55:40;2.20;;;2.20;;
26820;SDS011;37186;51.394;5.454;2024-03-02T03:58:40;2.17;;;2.17;;
26820;SDS011;37186;51.394;5.454;2024-03-02T04:01:41;2.17;;;2.17;;
26820;SDS011;37186;51.394;5.454;2024-03-02T04:04:41;2.20;;;2.20;;
26820;SDS011;37186;51.394;5.454;2024-03-02T04:07:43;2.10;;;2.10;;
26820;SDS011;37186;51.394;5.454;2024-03-02T04:10:44;2.20;;;2.20;;
26820;SDS011;37186;51.394;5.454;2024-03-02T04:13:44;2.17;;;2.17;;
26820;SDS011;37186;51.394;5.454;2024-03-02T04:16:45;2.13;;;2.13;;
26820;SDS011;37186;51.394;5.454;2024-03-02T04:19:46;2.03;;;2.03;;
26820;SDS011;37186;51.394;5.454;2024-03-02T04:22:46;2.10;;;2.10;;
26820;SDS011;37186;51.394;5.454;2024-03-02T04:25:47;2.00;;;2.00;;
26820;SDS011;37186;51.394;5.454;2024-03-02T04:28:47;2.00;;;2.00;;
26820;SDS011;37186;51.394;5.454;2024-03-02T04:31:48;2.10;;;2.10;;
26820;SDS011;37186;51.394;5.454;2024-03-02T04:34:49;2.20;;;2.20;;
26820;SDS011;37186;51.394;5.454;2024-03-02T04:37:49;2.10;;;2.10;;
26820;SDS011;37186;51.394;5.454;2024-03-02T04:40:50;2.20;;;2.20;;
26820;SDS011;37186;51.394;5.454;2024-03-02T04:43:50;2.17;;;2.17;;
26820;SDS011;37186;51.394;5.454;2024-03-02T04:46:51;2.10;;;2.10;;
26820;SDS011;37186;51.394;5.454;2024-03-02T04:49:51;2.10;;;2.10;;
26820;SDS011;37186;51.394;5.454;2024-03-02T04:52:52;2.10;;;2.10;;
26820;SDS011;37186;51.394;5.454;2024-03-02T04:55:52;2.00;;;2.00;;
26820;SDS011;37186;51.394;5.454;2024-03-02T04:58:55;2.17;;;2.17;;
26820;SDS011;37186;51.394;5.454;2024-03-02T05:01:56;2.10;;;2.10;;
26820;SDS011;37186;51.394;5.454;2024-03-02T05:04:56;2.10;;;2.10;;
26820;SDS011;37186;51.394;5.454;2024-03-02T05:07:57;2.10;;;2.10;;
26820;SDS011;37186;51.394;5.454;2024-03-02T05:10:57;2.10;;;2.10;;
26820;SDS011;37186;51.394;5.454;2024-03-02T05:14:18;2.20;;;2.20;;
26820;SDS011;37186;51.394;5.454;2024-03-02T05:17:19;2.10;;;2.10;;
26820;SDS011;37186;51.394;5.454;2024-03-02T05:20:19;2.00;;;2.00;;
26820;SDS011;37186;51.394;5.454;2024-03-02T05:23:20;2.20;;;2.20;;
26820;SDS011;37186;51.394;5.454;2024-03-02T05:26:20;2.10;;;2.10;;
26820;SDS011;37186;51.394;5.454;2024-03-02T05:29:21;2.03;;;2.03;;
26820;SDS011;37186;51.394;5.454;2024-03-02T05:32:21;2.10;;;2.10;;
26820;SDS011;37186;51.394;5.454;2024-03-02T05:35:22;2.10;;;2.10;;
26820;SDS011;37186;51.394;5.454;2024-03-02T05:38:22;2.20;;;2.20;;
26820;SDS011;37186;51.394;5.454;2024-03-02T05:41:23;2.20;;;2.20;;
26820;SDS011;37186;51.394;5.454;2024-03-02T05:44:23;2.10;;;2.10;;
26820;SDS011;37186;51.394;5.454;2024-03-02T05:47:24;2.10;;;2.10;;
26820;SDS011;37186;51.394;5.454;2024-03-02T05:50:24;2.23;;;2.23;;
26820;SDS011;37186;51.394;5.454;2024-03-02T05:53:25;2.00;;;2.00;;
26820;SDS011;37186;51.394;5.454;2024-03-02T05:56:25;2.13;;;2.13;;
26820;SDS011;37186;51.394;5.454;2024-03-02T05:59:26;2.20;;;2.20;;
26820;SDS011;37186;51.394;5.454;2024-03-02T06:02:27;2.30;;;2.30;;
26820;SDS011;37186;51.394;5.454;2024-03-02T06:05:27;2.20;;;2.20;;
26820;SDS011;37186;51.394;5.454;2024-03-02T06:08:28;2.20;;;2.20;;
26820;SDS011;37186;51.394;5.454;2024-03-02T06:11:29;2.30;;;2.30;;
26820;SDS011;37186;51.394;5.454;2024-03-02T06:14:29;2.10;;;2.10;;
26820;SDS011;37186;51.394;5.454;2024-03-02T06:17:30;2.30;;;2.30;;
26820;SDS011;37186;51.394;5.454;2024-03-02T06:20:30;2.20;;;2.20;;
26820;SDS011;37186;51.394;5.454;2024-03-02T06:23:31;2.20;;;2.20;;
26820;SDS011;37186;51.394;5.454;2024-03-02T06:26:32;2.10;;;2.10;;
26820;SDS011;37186;51.394;5.454;2024-03-02T06:29:33;2.10;;;2.10;;
26820;SDS011;37186;51.394;5.454;2024-03-02T06:32:36;2.10;;;2.10;;
26820;SDS011;37186;51.394;5.454;2024-03-02T06:35:37;2.10;;;2.10;;
26820;SDS011;37186;51.394;5.454;2024-03-02T06:38:38;2.10;;;2.10;;
26820;SDS011;37186;51.394;5.454;2024-03-02T06:41:40;2.13;;;2.13;;
26820;SDS011;37186;51.394;5.454;2024-03-02T06:44:42;2.30;;;2.30;;
26820;SDS011;37186;51.394;5.454;2024-03-02T06:47:43;2.20;;;2.20;;
26820;SDS011;37186;51.394;5.454;2024-03-02T06:50:44;2.20;;;2.20;;
26820;SDS011;37186;51.394;5.454;2024-03-02T06:53:44;2.20;;;2.20;;
26820;SDS011;37186;51.394;5.454;2024-03-02T06:56:46;2.10;;;2.10;;
26820;SDS011;37186;51.394;5.454;2024-03-02T06:59:47;2.20;;;2.20;;
26820;SDS011;37186;51.394;5.454;2024-03-02T07:02:50;2.10;;;2.10;;
26820;SDS011;37186;51.394;5.454;2024-03-02T07:05:50;2.33;;;2.33;;
26820;SDS011;37186;51.394;5.454;2024-03-02T07:08:51;2.30;;;2.30;;
26820;SDS011;37186;51.394;5.454;2024-03-02T07:11:51;2.10;;;2.10;;
26820;SDS011;37186;51.394;5.454;2024-03-02T07:14:52;2.20;;;2.20;;
26820;SDS011;37186;51.394;5.454;2024-03-02T07:18:11;2.20;;;2.20;;
26820;SDS011;37186;51.394;5.454;2024-03-02T07:21:11;2.23;;;2.23;;
26820;SDS011;37186;51.394;5.454;2024-03-02T07:24:12;2.30;;;2.30;;
26820;SDS011;37186;51.394;5.454;2024-03-02T07:27:16;2.20;;;2.20;;
26820;SDS011;37186;51.394;5.454;2024-03-02T07:30:17;2.20;;;2.20;;
26820;SDS011;37186;51.394;5.454;2024-03-02T07:33:18;2.30;;;2.30;;
26820;SDS011;37186;51.394;5.454;2024-03-02T07:36:18;2.20;;;2.20;;
26820;SDS011;37186;51.394;5.454;2024-03-02T07:39:19;2.20;;;2.20;;
26820;SDS011;37186;51.394;5.454;2024-03-02T07:42:20;2.10;;;2.10;;
26820;SDS011;37186;51.394;5.454;2024-03-02T07:45:20;2.20;;;2.20;;
26820;SDS011;37186;51.394;5.454;2024-03-02T07:48:21;2.10;;;2.10;;
26820;SDS011;37186;51.394;5.454;2024-03-02T07:51:22;2.10;;;2.10;;
26820;SDS011;37186;51.394;5.454;2024-03-02T07:54:22;2.30;;;2.30;;
26820;SDS011;37186;51.394;5.454;2024-03-02T07:57:23;2.20;;;2.20;;
26820;SDS011;37186;51.394;5.454;2024-03-02T08:00:24;2.17;;;2.17;;
26820;SDS011;37186;51.394;5.454;2024-03-02T08:03:25;2.20;;;2.20;;
26820;SDS011;37186;51.394;5.454;2024-03-02T08:06:26;2.20;;;2.20;;
26820;SDS011;37186;51.394;5.454;2024-03-02T08:09:27;2.07;;;2.07;;
26820;SDS011;37186;51.394;5.454;2024-03-02T08:12:28;2.27;;;2.27;;
26820;SDS011;37186;51.394;5.454;2024-03-02T08:15:28;2.10;;;2.10;;
26820;SDS011;37186;51.394;5.454;2024-03-02T08:18:29;2.00;;;2.00;;
26820;SDS011;37186;51.394;5.454;2024-03-02T08:21:29;2.10;;;2.10;;
26820;SDS011;37186;51.394;5.454;2024-03-02T08:24:32;2.13;;;2.13;;
26820;SDS011;37186;51.394;5.454;2024-03-02T08:27:32;2.10;;;2.10;;
26820;SDS011;37186;51.394;5.454;2024-03-02T08:30:33;2.00;;;2.00;;
26820;SDS011;37186;51.394;5.454;2024-03-02T08:33:34;2.03;;;2.03;;
26820;SDS011;37186;51.394;5.454;2024-03-02T08:36:35;2.20;;;2.20;;
26820;SDS011;37186;51.394;5.454;2024-03-02T08:39:36;2.20;;;2.20;;
26820;SDS011;37186;51.394;5.454;2024-03-02T08:42:36;2.20;;;2.20;;
26820;SDS011;37186;51.394;5.454;2024-03-02T08:45:37;2.10;;;2.10;;
26820;SDS011;37186;51.394;5.454;2024-03-02T08:48:39;2.13;;;2.13;;
26820;SDS011;37186;51.394;5.454;2024-03-02T08:51:40;2.20;;;2.20;;
26820;SDS011;37186;51.394;5.454;2024-03-02T08:54:40;2.20;;;2.20;;
26820;SDS011;37186;51.394;5.454;2024-03-02T08:57:41;2.10;;;2.10;;
26820;SDS011;37186;51.394;5.454;2024-03-02T09:00:42;2.20;;;2.20;;
26820;SDS011;37186;51.394;5.454;2024-03-02T09:03:42;2.00;;;2.00;;
26820;SDS011;37186;51.394;5.454;2024-03-02T09:06:46;2.10;;;2.10;;
26820;SDS011;37186;51.394;5.454;2024-03-02T09:09:46;2.10;;;2.10;;
26820;SDS011;37186;51.394;5.454;2024-03-02T09:12:47;2.20;;;2.20;;
26820;SDS011;37186;51.394;5.454;2024-03-02T09:15:47;2.10;;;2.10;;
26820;SDS011;37186;51.394;5.454;2024-03-02T09:18:48;2.20;;;2.20;;
26820;SDS011;37186;51.394;5.454;2024-03-02T09:21:48;2.13;;;2.13;;
26820;SDS011;37186;51.394;5.454;2024-03-02T09:24:50;2.20;;;2.20;;
26820;SDS011;37186;51.394;5.454;2024-03-02T09:27:50;2.10;;;2.10;;
26820;SDS011;37186;51.394;5.454;2024-03-02T09:30:51;2.03;;;2.03;;
26820;SDS011;37186;51.394;5.454;2024-03-02T09:33:51;2.07;;;2.07;;
26820;SDS011;37186;51.394;5.454;2024-03-02T09:36:52;2.10;;;2.10;;
26820;SDS011;37186;51.394;5.454;2024-03-02T09:39:52;2.03;;;2.03;;
26820;SDS011;37186;51.394;5.454;2024-03-02T09:42:54;2.20;;;2.20;;
26820;SDS011;37186;51.394;5.454;2024-03-02T09:45:55;2.20;;;2.20;;
26820;SDS011;37186;51.394;5.454;2024-03-02T09:48:56;2.20;;;2.20;;
26820;SDS011;37186;51.394;5.454;2024-03-02T09:51:57;2.10;;;2.10;;
26820;SDS011;37186;51.394;5.454;2024-03-02T09:54:57;2.10;;;2.10;;
26820;SDS011;37186;51.394;5.454;2024-03-02T09:57:58;2.10;;;2.10;;
26820;SDS011;37186;51.394;5.454;2024-03-02T10:00:58;2.10;;;2.10;;
26820;SDS011;37186;51.394;5.454;2024-03-02T10:03:59;2.07;;;2.07;;
26820;SDS011;37186;51.394;5.454;2024-03-02T10:07:18;2.10;;;2.10;;
26820;SDS011;37186;51.394;5.454;2024-03-02T10:10:19;2.20;;;2.20;;
26820;SDS011;37186;51.394;5.454;2024-03-02T10:13:21;2.10;;;2.10;;
26820;SDS011;37186;51.394;5.454;2024-03-02T10:16:25;2.20;;;2.20;;
26820;SDS011;37186;51.394;5.454;2024-03-02T10:19:25;2.27;;;2.27;;
26820;SDS011;37186;51.394;5.454;2024-03-02T10:22:26;2.20;;;2.20;;
26820;SDS011;37186;51.394;5.454;2024-03-02T10:25:33;2.20;;;2.20;;
26820;SDS011;37186;51.394;5.454;2024-03-02T10:28:34;2.20;;;2.20;;
26820;SDS011;37186;51.394;5.454;2024-03-02T10:31:34;2.20;;;2.20;;
26820;SDS011;37186;51.394;5.454;2024-03-02T10:34:39;2.20;;;2.20;;
26820;SDS011;37186;51.394;5.454;2024-03-02T10:37:41;2.40;;;2.40;;
26820;SDS011;37186;51.394;5.454;2024-03-02T10:40:46;2.40;;;2.40;;
26820;SDS011;37186;51.394;5.454;2024-03-02T10:43:48;2.20;;;2.20;;
26820;SDS011;37186;51.394;5.454;2024-03-02T10:46:51;2.17;;;2.17;;
26820;SDS011;37186;51.394;5.454;2024-03-02T10:49:54;2.40;;;2.40;;
26820;SDS011;37186;51.394;5.454;2024-03-02T10:52:56;2.30;;;2.30;;
26820;SDS011;37186;51.394;5.454;2024-03-02T10:55:57;2.27;;;2.27;;
26820;SDS011;37186;51.394;5.454;2024-03-02T10:59:22;2.20;;;2.20;;
26820;SDS011;37186;51.394;5.454;2024-03-02T11:02:28;2.30;;;2.30;;
26820;SDS011;37186;51.394;5.454;2024-03-02T11:05:31;2.30;;;2.30;;
26820;SDS011;37186;51.394;5.454;2024-03-02T11:08:34;2.20;;;2.20;;
26820;SDS011;37186;51.394;5.454;2024-03-02T11:11:42;2.30;;;2.30;;
26820;SDS011;37186;51.394;5.454;2024-03-02T11:14:43;2.40;;;2.40;;
26820;SDS011;37186;51.394;5.454;2024-03-02T11:17:44;2.40;;;2.40;;
26820;SDS011;37186;51.394;5.454;2024-03-02T11:20:46;2.40;;;2.40;;
26820;SDS011;37186;51.394;5.454;2024-03-02T11:23:47;2.30;;;2.30;;
26820;SDS011;37186;51.394;5.454;2024-03-02T11:26:48;2.27;;;2.27;;
26820;SDS011;37186;51.394;5.454;2024-03-02T11:29:51;2.30;;;2.30;;
26820;SDS011;37186;51.394;5.454;2024-03-02T11:32:55;2.27;;;2.27;;
26820;SDS011;37186;51.394;5.454;2024-03-02T11:35:58;2.20;;;2.20;;
26820;SDS011;37186;51.394;5.454;2024-03-02T11:39:01;2.20;;;2.20;;
26820;SDS011;37186;51.394;5.454;2024-03-02T11:42:05;2.20;;;2.20;;
26820;SDS011;37186;51.394;5.454;2024-03-02T11:45:08;2.30;;;2.30;;
26820;SDS011;37186;51.394;5.454;2024-03-02T11:48:09;2.90;;;2.80;;
26820;SDS011;37186;51.394;5.454;2024-03-02T11:51:12;2.33;;;2.33;;
26820;SDS011;37186;51.394;5.454;2024-03-02T11:54:14;2.57;;;2.57;;
26820;SDS011;37186;51.394;5.454;2024-03-02T11:57:15;2.20;;;2.20;;
26820;SDS011;37186;51.394;5.454;2024-03-02T12:00:17;2.40;;;2.40;;
26820;SDS011;37186;51.394;5.454;2024-03-02T12:03:20;2.55;;;2.55;;
26820;SDS011;37186;51.394;5.454;2024-03-02T12:06:22;2.28;;;2.28;;
26820;SDS011;37186;51.394;5.454;2024-03-02T12:09:24;2.40;;;2.40;;
26820;SDS011;37186;51.394;5.454;2024-03-02T12:12:26;2.35;;;2.35;;
26820;SDS011;37186;51.394;5.454;2024-03-02T12:15:27;2.10;;;2.10;;
26820;SDS011;37186;51.394;5.454;2024-03-02T12:18:29;2.30;;;2.30;;
26820;SDS011;37186;51.394;5.454;2024-03-02T12:21:30;2.10;;;2.10;;
26820;SDS011;37186;51.394;5.454;2024-03-02T12:24:30;2.00;;;2.00;;
26820;SDS011;37186;51.394;5.454;2024-03-02T12:27:31;2.10;;;2.10;;
26820;SDS011;37186;51.394;5.454;2024-03-02T12:30:32;1.90;;;1.90;;
26820;SDS011;37186;51.394;5.454;2024-03-02T12:33:35;1.90;;;1.90;;
26820;SDS011;37186;51.394;5.454;2024-03-02T12:36:39;1.90;;;1.90;;
26820;SDS011;37186;51.394;5.454;2024-03-02T12:39:44;2.22;;;2.22;;
26820;SDS011;37186;51.394;5.454;2024-03-02T12:42:46;2.20;;;2.20;;
26820;SDS011;37186;51.394;5.454;2024-03-02T12:45:47;2.10;;;2.10;;
26820;SDS011;37186;51.394;5.454;2024-03-02T12:48:47;2.40;;;2.40;;
26820;SDS011;37186;51.394;5.454;2024-03-02T12:51:48;2.25;;;2.25;;
26820;SDS011;37186;51.394;5.454;2024-03-02T12:54:52;2.08;;;2.08;;
26820;SDS011;37186;51.394;5.454;2024-03-02T12:57:57;2.08;;;2.08;;
26820;SDS011;37186;51.394;5.454;2024-03-02T13:01:05;2.38;;;2.38;;
26820;SDS011;37186;51.394;5.454;2024-03-02T13:04:09;2.30;;;2.30;;
26820;SDS011;37186;51.394;5.454;2024-03-02T13:07:10;2.25;;;2.25;;
26820;SDS011;37186;51.394;5.454;2024-03-02T13:10:13;2.30;;;2.30;;
26820;SDS011;37186;51.394;5.454;2024-03-02T13:13:14;2.40;;;2.40;;
26820;SDS011;37186;51.394;5.454;2024-03-02T13:16:14;2.40;;;2.40;;
26820;SDS011;37186;51.394;5.454;2024-03-02T13:19:17;2.38;;;2.38;;
26820;SDS011;37186;51.394;5.454;2024-03-02T13:22:19;2.30;;;2.30;;
26820;SDS011;37186;51.394;5.454;2024-03-02T13:25:20;2.20;;;2.20;;
26820;SDS011;37186;51.394;5.454;2024-03-02T13:28:21;2.50;;;2.50;;
26820;SDS011;37186;51.394;5.454;2024-03-02T13:31:21;2.22;;;2.22;;
26820;SDS011;37186;51.394;5.454;2024-03-02T13:34:22;2.28;;;2.28;;
26820;SDS011;37186;51.394;5.454;2024-03-02T13:37:23;2.30;;;2.30;;
26820;SDS011;37186;51.394;5.454;2024-03-02T13:40:23;2.42;;;2.42;;
26820;SDS011;37186;51.394;5.454;2024-03-02T13:43:24;2.50;;;2.50;;
26820;SDS011;37186;51.394;5.454;2024-03-02T13:46:24;2.38;;;2.38;;
26820;SDS011;37186;51.394;5.454;2024-03-02T13:49:25;2.42;;;2.42;;
26820;SDS011;37186;51.394;5.454;2024-03-02T13:52:33;2.58;;;2.58;;
26820;SDS011;37186;51.394;5.454;2024-03-02T13:55:33;2.33;;;2.33;;
26820;SDS011;37186;51.394;5.454;2024-03-02T13:58:34;2.38;;;2.38;;
26820;SDS011;37186;51.394;5.454;2024-03-02T14:01:35;2.45;;;2.45;;
26820;SDS011;37186;51.394;5.454;2024-03-02T14:04:35;2.70;;;2.65;;
26820;SDS011;37186;51.394;5.454;2024-03-02T14:07:39;2.65;;;2.65;;
26820;SDS011;37186;51.394;5.454;2024-03-02T14:10:41;2.42;;;2.42;;
26820;SDS011;37186;51.394;5.454;2024-03-02T14:13:42;2.60;;;2.60;;
26820;SDS011;37186;51.394;5.454;2024-03-02T14:16:44;2.70;;;2.70;;
26820;SDS011;37186;51.394;5.454;2024-03-02T14:19:45;2.88;;;2.78;;
26820;SDS011;37186;51.394;5.454;2024-03-02T14:22:45;2.65;;;2.65;;
26820;SDS011;37186;51.394;5.454;2024-03-02T14:25:46;2.55;;;2.55;;
26820;SDS011;37186;51.394;5.454;2024-03-02T14:28:46;2.50;;;2.50;;
26820;SDS011;37186;51.394;5.454;2024-03-02T14:31:47;2.50;;;2.50;;
26820;SDS011;37186;51.394;5.454;2024-03-02T14:34:48;2.40;;;2.40;;
26820;SDS011;37186;51.394;5.454;2024-03-02T14:37:48;2.35;;;2.35;;
26820;SDS011;37186;51.394;5.454;2024-03-02T14:40:49;2.30;;;2.30;;
26820;SDS011;37186;51.394;5.454;2024-03-02T14:43:50;2.40;;;2.40;;
26820;SDS011;37186;51.394;5.454;2024-03-02T14:46:51;2.58;;;2.58;;
26820;SDS011;37186;51.394;5.454;2024-03-02T14:49:51;2.53;;;2.53;;
26820;SDS011;37186;51.394;5.454;2024-03-02T14:52:52;2.55;;;2.55;;
26820;SDS011;37186;51.394;5.454;2024-03-02T14:55:53;2.30;;;2.30;;
26820;SDS011;37186;51.394;5.454;2024-03-02T14:58:53;2.42;;;2.42;;
26820;SDS011;37186;51.394;5.454;2024-03-02T15:01:54;2.70;;;2.70;;
26820;SDS011;37186;51.394;5.454;2024-03-02T15:04:54;2.63;;;2.63;;
26820;SDS011;37186;51.394;5.454;2024-03-02T15:07:55;3.08;;;2.97;;
26820;SDS011;37186;51.394;5.454;2024-03-02T15:10:58;2.60;;;2.60;;
26820;SDS011;37186;51.394;5.454;2024-03-02T15:14:00;2.80;;;2.70;;
26820;SDS011;37186;51.394;5.454;2024-03-02T15:17:01;2.90;;;2.80;;
26820;SDS011;37186;51.394;5.454;2024-03-02T15:20:01;2.70;;;2.70;;
26820;SDS011;37186;51.394;5.454;2024-03-02T15:23:04;2.95;;;2.85;;
26820;SDS011;37186;51.394;5.454;2024-03-02T15:26:05;2.67;;;2.65;;
26820;SDS011;37186;51.394;5.454;2024-03-02T15:29:05;2.53;;;2.53;;
26820;SDS011;37186;51.394;5.454;2024-03-02T15:32:06;2.70;;;2.67;;
26820;SDS011;37186;51.394;5.454;2024-03-02T15:35:07;2.60;;;2.60;;
26820;SDS011;37186;51.394;5.454;2024-03-02T15:38:07;2.78;;;2.70;;
26820;SDS011;37186;51.394;5.454;2024-03-02T15:41:11;2.60;;;2.60;;
26820;SDS011;37186;51.394;5.454;2024-03-02T15:44:12;2.83;;;2.72;;
26820;SDS011;37186;51.394;5.454;2024-03-02T15:47:12;2.85;;;2.75;;
26820;SDS011;37186;51.394;5.454;2024-03-02T15:50:13;2.63;;;2.60;;
26820;SDS011;37186;51.394;5.454;2024-03-02T15:53:15;2.60;;;2.60;;
26820;SDS011;37186;51.394;5.454;2024-03-02T15:56:15;2.70;;;2.65;;
26820;SDS011;37186;51.394;5.454;2024-03-02T15:59:16;2.50;;;2.50;;
26820;SDS011;37186;51.394;5.454;2024-03-02T16:02:16;2.40;;;2.40;;
26820;SDS011;37186;51.394;5.454;2024-03-02T16:05:17;2.40;;;2.40;;
26820;SDS011;37186;51.394;5.454;2024-03-02T16:08:18;2.47;;;2.47;;
26820;SDS011;37186;51.394;5.454;2024-03-02T16:11:19;2.60;;;2.60;;
26820;SDS011;37186;51.394;5.454;2024-03-02T16:14:19;2.90;;;2.80;;
26820;SDS011;37186;51.394;5.454;2024-03-02T16:17:20;2.78;;;2.70;;
26820;SDS011;37186;51.394;5.454;2024-03-02T16:20:20;2.60;;;2.60;;
26820;SDS011;37186;51.394;5.454;2024-03-02T16:23:21;3.10;;;3.00;;
26820;SDS011;37186;51.394;5.454;2024-03-02T16:26:21;3.20;;;3.10;;
26820;SDS011;37186;51.394;5.454;2024-03-02T16:29:22;3.10;;;3.00;;
26820;SDS011;37186;51.394;5.454;2024-03-02T16:32:22;3.60;;;3.50;;
26820;SDS011;37186;51.394;5.454;2024-03-02T16:35:23;3.42;;;3.33;;
26820;SDS011;37186;51.394;5.454;2024-03-02T16:38:23;3.40;;;3.30;;
26820;SDS011;37186;51.394;5.454;2024-03-02T16:41:24;3.40;;;3.30;;
26820;SDS011;37186;51.394;5.454;2024-03-02T16:44:29;3.60;;;3.50;;
26820;SDS011;37186;51.394;5.454;2024-03-02T16:47:29;3.42;;;3.33;;
26820;SDS011;37186;51.394;5.454;2024-03-02T16:50:30;3.60;;;3.50;;
26820;SDS011;37186;51.394;5.454;2024-03-02T16:53:31;3.50;;;3.40;;
26820;SDS011;37186;51.394;5.454;2024-03-02T16:56:37;3.35;;;3.25;;
26820;SDS011;37186;51.394;5.454;2024-03-02T16:59:39;3.53;;;3.42;;
26820;SDS011;37186;51.394;5.454;2024-03-02T17:02:40;3.42;;;3.33;;
26820;SDS011;37186;51.394;5.454;2024-03-02T17:05:40;3.03;;;2.92;;
26820;SDS011;37186;51.394;5.454;2024-03-02T17:08:41;3.00;;;2.90;;
26820;SDS011;37186;51.394;5.454;2024-03-02T17:11:41;3.00;;;2.90;;
26820;SDS011;37186;51.394;5.454;2024-03-02T17:14:42;2.95;;;2.85;;
26820;SDS011;37186;51.394;5.454;2024-03-02T17:17:43;2.83;;;2.72;;
26820;SDS011;37186;51.394;5.454;2024-03-02T17:20:43;2.92;;;2.83;;
26820;SDS011;37186;51.394;5.454;2024-03-02T17:23:44;2.88;;;2.78;;
26820;SDS011;37186;51.394;5.454;2024-03-02T17:26:44;2.55;;;2.55;;
26820;SDS011;37186;51.394;5.454;2024-03-02T17:29:45;2.42;;;2.42;;
26820;SDS011;37186;51.394;5.454;2024-03-02T17:32:45;2.53;;;2.53;;
26820;SDS011;37186;51.394;5.454;2024-03-02T17:35:46;2.22;;;2.22;;
26820;SDS011;37186;51.394;5.454;2024-03-02T17:38:50;2.35;;;2.35;;
26820;SDS011;37186;51.394;5.454;2024-03-02T17:41:50;2.20;;;2.20;;
26820;SDS011;37186;51.394;5.454;2024-03-02T17:44:51;2.20;;;2.20;;
26820;SDS011;37186;51.394;5.454;2024-03-02T17:47:51;2.15;;;2.15;;
26820;SDS011;37186;51.394;5.454;2024-03-02T17:50:52;2.20;;;2.20;;
26820;SDS011;37186;51.394;5.454;2024-03-02T17:53:52;2.30;;;2.30;;
26820;SDS011;37186;51.394;5.454;2024-03-02T17:56:55;2.20;;;2.20;;
26820;SDS011;37186;51.394;5.454;2024-03-02T17:59:56;2.40;;;2.40;;
26820;SDS011;37186;51.394;5.454;2024-03-02T18:02:57;2.13;;;2.13;;
26820;SDS011;37186;51.394;5.454;2024-03-02T18:05:57;2.30;;;2.30;;
26820;SDS011;37186;51.394;5.454;2024-03-02T18:08:58;2.40;;;2.40;;
26820;SDS011;37186;51.394;5.454;2024-03-02T18:12:01;2.20;;;2.20;;
26820;SDS011;37186;51.394;5.454;2024-03-02T18:15:01;2.30;;;2.30;;
26820;SDS011;37186;51.394;5.454;2024-03-02T18:18:02;2.30;;;2.30;;